createdAt,value
2023-05-13T03:45:11.819Z,100.00
2023-05-13T03:48:14.597Z,100.00
2023-05-13T04:14:29.612Z,100.00
2023-05-13T04:17:34.936Z,100.00
2023-05-13T04:20:39.153Z,100.00
2023-05-13T04:23:42.009Z,100.00
2023-05-13T04:26:46.013Z,100.00
2023-05-13T04:29:50.471Z,100.00
2023-05-13T04:32:54.646Z,100.00
2023-05-13T04:35:57.540Z,100.00
2023-05-13T04:39:00.438Z,100.00
2023-05-13T04:42:03.090Z,95.40
2023-05-13T04:45:08.530Z,85.91
2023-05-13T04:48:16.292Z,86.45
2023-05-13T04:51:19.127Z,78.22
2023-05-13T04:54:22.462Z,76.66
2023-05-13T04:57:25.122Z,78.35
2023-05-13T05:00:29.401Z,81.22
2023-05-13T05:03:31.937Z,81.51
2023-05-13T05:06:34.453Z,72.14
2023-05-13T05:09:37.045Z,71.66
2023-05-13T05:12:39.583Z,65.42
2023-05-13T05:15:43.479Z,61.07
2023-05-13T05:18:46.153Z,58.66
2023-05-13T05:21:48.776Z,59.16
2023-05-13T05:24:51.236Z,61.46
2023-05-13T05:27:53.721Z,64.23
2023-05-13T05:30:57.792Z,65.05
2023-05-13T05:34:01.033Z,63.46
2023-05-13T05:37:03.556Z,65.58
2023-05-13T05:40:07.508Z,64.56
2023-05-13T05:43:11.010Z,64.58
2023-05-13T05:46:14.889Z,64.93
2023-05-13T05:49:17.443Z,63.45
2023-05-13T05:52:20.024Z,63.83
2023-05-13T05:55:22.757Z,60.69
2023-05-13T05:58:27.029Z,61.38
2023-05-13T06:01:33.833Z,60.67
2023-05-13T06:04:36.420Z,58.02
2023-05-13T06:07:38.993Z,56.57
2023-05-13T06:10:41.798Z,57.63
2023-05-13T06:13:45.006Z,55.86
2023-05-13T06:16:48.845Z,55.26
2023-05-13T06:19:51.343Z,55.32
2023-05-13T06:22:53.839Z,53.89
2023-05-13T06:25:57.441Z,53.60
2023-05-13T06:29:00.011Z,49.85
2023-05-13T06:32:04.484Z,50.41
2023-05-13T06:35:07.581Z,50.35
2023-05-13T06:38:10.130Z,50.04
2023-05-13T06:41:12.645Z,49.01
2023-05-13T06:44:15.218Z,48.14
2023-05-13T06:47:19.879Z,47.76
2023-05-13T06:50:23.790Z,47.92
2023-05-13T06:53:26.709Z,46.26
2023-05-13T06:56:30.501Z,46.57
2023-05-13T06:59:33.008Z,45.04
2023-05-13T07:02:36.926Z,45.50
2023-05-13T07:05:40.083Z,43.71
2023-05-13T07:08:42.652Z,44.63
2023-05-13T07:11:45.237Z,44.47
2023-05-13T07:14:47.801Z,43.22
2023-05-13T07:17:51.785Z,43.46
2023-05-13T07:20:54.555Z,42.78
2023-05-13T07:23:57.023Z,42.34
2023-05-13T07:26:59.636Z,40.25
2023-05-13T07:30:02.210Z,41.10
2023-05-13T07:33:06.198Z,41.72
2023-05-13T07:36:08.820Z,40.15
2023-05-13T07:39:11.498Z,40.23
2023-05-13T07:42:15.317Z,40.39
2023-05-13T07:45:17.877Z,40.48
2023-05-13T07:48:21.770Z,38.83
2023-05-13T07:51:24.250Z,39.87
2023-05-13T07:54:26.814Z,39.06
2023-05-13T07:57:29.312Z,37.04
2023-05-13T08:00:31.829Z,35.74
2023-05-13T08:03:36.133Z,36.94
2023-05-13T08:06:40.122Z,36.91
2023-05-13T08:09:42.933Z,36.51
2023-05-13T08:12:50.873Z,37.28
2023-05-13T08:15:53.890Z,36.51
2023-05-13T08:18:58.132Z,36.60
2023-05-13T08:22:00.779Z,36.40
2023-05-13T08:25:03.494Z,37.27
2023-05-13T08:28:06.240Z,34.95
2023-05-13T08:31:08.781Z,36.23
2023-05-13T08:34:12.598Z,33.71
2023-05-13T08:37:15.080Z,35.20
2023-05-13T08:40:18.566Z,34.84
2023-05-13T08:43:28.094Z,34.19
2023-05-13T08:46:33.897Z,33.66
2023-05-13T08:49:38.334Z,33.16
2023-05-13T08:52:41.107Z,32.31
2023-05-13T08:55:43.802Z,33.62
2023-05-13T08:58:46.754Z,33.29
2023-05-13T09:01:51.008Z,32.64
2023-05-13T09:04:56.332Z,31.93
2023-05-13T09:07:58.999Z,30.70
2023-05-13T09:11:01.636Z,31.09
2023-05-13T09:14:07.183Z,29.67
2023-05-13T09:17:09.747Z,31.06
2023-05-13T09:20:15.589Z,29.97
2023-05-13T09:23:18.298Z,31.03
2023-05-13T09:26:30.639Z,30.49
2023-05-13T09:29:33.352Z,30.16
2023-05-13T09:32:35.890Z,31.02
2023-05-13T09:35:41.396Z,30.02
2023-05-13T09:38:44.003Z,30.96
2023-05-13T09:41:48.154Z,30.16
2023-05-13T09:44:50.796Z,30.26
2023-05-13T09:47:54.126Z,31.36
2023-05-13T09:50:58.468Z,29.86
2023-05-13T09:54:06.215Z,30.11
2023-05-13T09:57:08.776Z,29.93
2023-05-13T10:00:24.718Z,29.12
2023-05-13T10:03:38.338Z,29.62
2023-05-13T10:07:16.766Z,29.06
2023-05-13T10:10:30.206Z,28.70
2023-05-13T10:14:01.941Z,30.11
2023-05-13T10:17:13.178Z,29.06
2023-05-13T10:20:31.317Z,28.48
2023-05-13T10:23:37.132Z,28.56
2023-05-13T10:26:48.772Z,29.21
2023-05-13T10:30:10.198Z,30.32
2023-05-13T10:33:51.955Z,31.15
2023-05-13T10:37:22.746Z,28.47
2023-05-13T10:41:21.136Z,27.31
2023-05-13T10:44:47.721Z,29.47
2023-05-13T10:48:34.990Z,27.68
2023-05-13T10:55:29.365Z,28.59
2023-05-13T11:02:28.658Z,28.07
2023-05-13T11:05:50.068Z,29.29
2023-05-13T11:08:55.879Z,28.37
2023-05-13T11:12:05.152Z,29.17
2023-05-13T11:15:22.569Z,28.44
2023-05-13T11:18:43.031Z,28.72
2023-05-13T11:21:52.658Z,29.74
2023-05-13T11:25:08.208Z,29.88
2023-05-13T11:28:10.687Z,28.01
2023-05-13T11:31:19.008Z,29.57
2023-05-13T11:34:23.229Z,28.19
2023-05-13T11:37:25.788Z,27.81
2023-05-13T11:40:30.230Z,28.60
2023-05-13T11:43:34.695Z,29.13
2023-05-13T11:46:37.549Z,27.67
2023-05-13T11:49:42.951Z,29.53
2023-05-13T11:52:45.598Z,29.64
2023-05-13T11:55:48.079Z,32.86
2023-05-13T11:58:50.622Z,32.24
2023-05-13T12:02:00.175Z,32.60
2023-05-13T12:05:05.752Z,31.45
2023-05-13T12:08:10.660Z,31.46
2023-05-13T12:11:13.775Z,30.30
2023-05-13T12:14:16.465Z,30.04
2023-05-13T12:17:19.581Z,29.58
2023-05-13T12:20:24.899Z,28.83
2023-05-13T12:23:27.668Z,28.57
2023-05-13T12:26:31.581Z,28.18
2023-05-13T12:29:43.440Z,26.98
2023-05-13T12:32:47.355Z,26.91
2023-05-13T12:35:53.357Z,28.23
2023-05-13T12:39:00.142Z,30.98
2023-05-13T12:42:03.318Z,29.84
2023-05-13T12:45:07.190Z,28.06
2023-05-13T12:48:10.101Z,27.83
2023-05-13T12:51:15.829Z,28.77
2023-05-13T12:54:18.405Z,28.33
2023-05-13T12:57:21.421Z,28.47
2023-05-13T13:00:24.932Z,29.83
2023-05-13T13:03:27.713Z,27.37
2023-05-13T13:06:32.419Z,28.21
2023-05-13T13:09:35.045Z,28.32
2023-05-13T13:12:37.555Z,27.71
2023-05-13T13:15:40.391Z,27.70
2023-05-13T13:18:43.708Z,26.89
2023-05-13T13:21:47.597Z,28.13
2023-05-13T13:24:50.066Z,29.25
2023-05-13T13:27:52.669Z,28.24
2023-05-13T13:30:55.539Z,28.10
2023-05-13T13:34:04.032Z,27.55
2023-05-13T13:37:07.868Z,26.57
2023-05-13T13:40:11.762Z,26.89
2023-05-13T13:43:14.275Z,26.39
2023-05-13T13:46:16.877Z,27.03
2023-05-13T13:49:23.972Z,26.28
2023-05-13T13:52:28.662Z,26.80
2023-05-13T13:55:31.324Z,27.65
2023-05-13T13:58:33.955Z,27.07
2023-05-13T14:01:36.509Z,27.80
2023-05-13T14:04:39.748Z,28.05
2023-05-13T14:07:43.592Z,27.75
2023-05-13T14:10:46.143Z,27.19
2023-05-13T14:13:48.668Z,28.54
2023-05-13T14:16:51.946Z,28.00
2023-05-13T14:19:55.560Z,28.29
2023-05-13T14:22:59.558Z,28.80
2023-05-13T14:26:02.168Z,28.54
2023-05-13T14:29:04.719Z,28.01
2023-05-13T14:32:07.965Z,29.75
2023-05-13T14:35:10.900Z,29.12
2023-05-13T14:38:14.734Z,28.81
2023-05-13T14:41:19.986Z,29.23
2023-05-13T14:44:22.552Z,30.17
2023-05-13T14:47:25.151Z,31.29
2023-05-13T14:50:27.709Z,30.05
2023-05-13T14:53:31.624Z,30.00
2023-05-13T14:56:34.267Z,29.63
2023-05-13T14:59:36.983Z,28.51
2023-05-13T15:02:39.665Z,29.75
2023-05-13T15:05:44.138Z,28.97
2023-05-13T15:08:48.200Z,30.21
2023-05-13T15:11:50.780Z,30.20
2023-05-13T15:14:53.887Z,31.15
2023-05-13T15:17:56.477Z,31.47
2023-05-13T15:20:59.127Z,30.09
2023-05-13T15:24:02.972Z,30.97
2023-05-13T15:27:05.931Z,31.76
2023-05-13T15:30:09.450Z,30.50
2023-05-13T15:33:12.043Z,30.75
2023-05-13T15:36:14.626Z,31.41
2023-05-13T15:39:18.446Z,31.24
2023-05-13T15:42:21.361Z,31.67
2023-05-13T15:45:23.873Z,32.04
2023-05-13T15:48:26.505Z,31.49
2023-05-13T15:51:29.258Z,32.28
2023-05-13T15:54:33.151Z,32.09
2023-05-13T15:57:35.673Z,31.73
2023-05-13T16:00:38.165Z,33.16
2023-05-13T16:03:40.697Z,31.44
2023-05-13T16:06:43.223Z,31.68
2023-05-13T16:09:47.122Z,32.24
2023-05-13T16:12:49.648Z,32.60
2023-05-13T16:15:53.804Z,32.34
2023-05-13T16:18:56.445Z,31.94
2023-05-13T16:21:59.007Z,32.93
2023-05-13T16:25:05.655Z,32.16
2023-05-13T16:28:08.521Z,32.67
2023-05-13T16:31:11.161Z,32.46
2023-05-13T16:34:13.997Z,33.83
2023-05-13T16:37:16.608Z,35.14
2023-05-13T16:40:20.685Z,35.56
2023-05-13T16:43:23.293Z,35.42
2023-05-13T16:46:25.873Z,36.43
2023-05-13T16:49:28.465Z,35.75
2023-05-13T16:52:32.132Z,36.32
2023-05-13T16:55:36.300Z,35.86
2023-05-13T16:58:38.885Z,36.41
2023-05-13T17:01:41.496Z,36.88
2023-05-13T17:04:44.075Z,34.79
2023-05-13T17:07:46.579Z,34.88
2023-05-13T17:10:50.524Z,34.37
2023-05-13T17:13:53.264Z,35.21
2023-05-13T17:16:56.154Z,35.65
2023-05-13T17:19:58.842Z,35.42
2023-05-13T17:23:01.309Z,34.84
2023-05-13T17:26:05.261Z,35.96
2023-05-13T17:29:07.881Z,36.71
2023-05-13T17:32:10.536Z,37.71
2023-05-13T17:35:13.032Z,37.25
2023-05-13T17:38:16.940Z,37.45
2023-05-13T17:41:21.738Z,37.78
2023-05-13T17:44:24.509Z,38.28
2023-05-13T17:47:27.036Z,39.14
2023-05-13T17:50:30.504Z,39.29
2023-05-13T17:53:34.787Z,39.40
2023-05-13T17:56:39.030Z,39.86
2023-05-13T17:59:42.085Z,40.27
2023-05-13T18:02:44.697Z,41.03
2023-05-13T18:05:47.296Z,40.74
2023-05-13T18:08:49.896Z,41.21
2023-05-13T18:11:53.718Z,41.62
2023-05-13T18:14:56.257Z,41.93
2023-05-13T18:17:58.814Z,42.56
2023-05-13T18:21:01.438Z,43.68
2023-05-13T18:24:03.980Z,44.45
2023-05-13T18:27:08.692Z,45.11
2023-05-13T18:30:12.700Z,46.18
2023-05-13T18:33:15.210Z,48.73
2023-05-13T18:36:17.924Z,49.16
2023-05-13T18:39:21.720Z,50.29
2023-05-13T18:42:26.310Z,51.08
2023-05-13T18:45:28.987Z,51.82
2023-05-13T18:48:31.563Z,52.92
2023-05-13T18:51:34.791Z,55.17
2023-05-13T18:54:38.424Z,56.39
2023-05-13T18:57:42.335Z,57.91
2023-05-13T19:00:44.843Z,59.42
2023-05-13T19:03:47.564Z,61.13
2023-05-13T19:06:50.393Z,62.96
2023-05-13T19:09:52.912Z,64.81
2023-05-13T19:12:56.731Z,66.67
2023-05-13T19:16:00.521Z,69.03
2023-05-13T19:19:11.626Z,73.31
2023-05-13T19:22:14.944Z,74.62
2023-05-13T19:25:17.588Z,75.20
2023-05-13T19:28:21.564Z,80.96
2023-05-13T19:31:24.670Z,81.25
2023-05-13T19:34:27.429Z,80.83
2023-05-13T19:37:32.603Z,83.09
2023-05-13T19:40:35.205Z,84.80
2023-05-13T19:43:39.315Z,83.30
2023-05-13T20:01:54.076Z,94.68
2023-05-13T20:05:06.256Z,96.64
2023-05-13T20:08:12.641Z,95.61
2023-05-13T20:11:21.753Z,96.67
2023-05-13T20:14:30.617Z,98.99
2023-05-13T20:17:34.993Z,100.00
